createdAt,value
2018-09-15T00:00:47.457Z,19.09
2018-09-15T00:01:47.167Z,19.11
2018-09-15T00:02:47.418Z,19.09
2018-09-15T00:03:47.416Z,19.15
2018-09-15T00:04:47.437Z,19.04
2018-09-15T00:05:46.944Z,19.08
2018-09-15T00:06:47.169Z,19.11
2018-09-15T00:07:47.163Z,19.16
2018-09-15T00:08:47.416Z,19.18
2018-09-15T00:09:47.161Z,19.12
2018-09-15T00:10:47.172Z,19.16
2018-09-15T00:11:47.428Z,19.12
2018-09-15T00:12:47.181Z,19.22
2018-09-15T00:13:47.432Z,19.22
2018-09-15T00:14:47.422Z,19.14
2018-09-15T00:15:47.436Z,19.19
2018-09-15T00:16:47.186Z,19.15
2018-09-15T00:17:47.451Z,19.18
2018-09-15T00:18:47.448Z,19.16
2018-09-15T00:19:47.429Z,19.19
2018-09-15T00:20:46.985Z,19.18
2018-09-15T00:21:47.438Z,19.15
2018-09-15T00:22:47.234Z,19.29
2018-09-15T00:23:46.964Z,19.22
2018-09-15T00:24:47.199Z,19.29
2018-09-15T00:25:47.196Z,19.24
2018-09-15T00:26:47.484Z,19.24
2018-09-15T00:27:47.511Z,19.27
2018-09-15T00:28:47.541Z,19.31
2018-09-15T00:29:47.459Z,19.33
2018-09-15T00:30:47.311Z,19.33
2018-09-15T00:31:46.940Z,19.33
2018-09-15T00:32:47.190Z,19.33
2018-09-15T00:33:47.448Z,19.36
2018-09-15T00:34:47.195Z,19.22
2018-09-15T00:35:47.232Z,19.37
2018-09-15T00:36:46.935Z,19.29
2018-09-15T00:37:47.493Z,19.39
2018-09-15T00:38:47.502Z,19.24
2018-09-15T00:39:47.186Z,19.3
2018-09-15T00:40:47.479Z,19.34
2018-09-15T00:41:47.241Z,19.31
2018-09-15T00:42:47.193Z,19.29
2018-09-15T00:43:47.190Z,19.34
2018-09-15T00:44:47.193Z,19.33
2018-09-15T00:45:47.190Z,19.34
2018-09-15T00:46:47.188Z,19.26
2018-09-15T00:47:47.206Z,19.41
2018-09-15T00:48:47.198Z,19.26
2018-09-15T00:49:47.200Z,19.22
2018-09-15T00:50:46.971Z,19.21
2018-09-15T00:51:47.456Z,19.24
2018-09-15T00:52:47.465Z,19.24
2018-09-15T00:53:47.193Z,19.18
2018-09-15T00:54:47.455Z,19.16
2018-09-15T00:55:47.553Z,19.16
2018-09-15T00:56:47.209Z,19.19
2018-09-15T00:57:46.956Z,19.15
2018-09-15T00:58:47.498Z,19.14
2018-09-15T00:59:47.265Z,19.12
2018-09-15T01:00:47.034Z,19.09
2018-09-15T01:01:47.198Z,19.16
2018-09-15T01:02:47.326Z,19.16
2018-09-15T01:03:47.204Z,19.12
2018-09-15T01:04:47.200Z,19.11
2018-09-15T01:05:47.206Z,19.14
2018-09-15T01:06:47.460Z,19.15
2018-09-15T01:07:47.464Z,19.12
2018-09-15T01:08:47.216Z,19.07
2018-09-15T01:09:47.455Z,19.12
2018-09-15T01:10:47.468Z,19.14
2018-09-15T01:11:47.477Z,19.09
2018-09-15T01:12:47.208Z,19.09
2018-09-15T01:13:47.477Z,19.04
2018-09-15T01:14:47.211Z,19.02
2018-09-15T01:15:47.242Z,19
2018-09-15T01:16:47.469Z,18.98
2018-09-15T01:17:47.220Z,18.99
2018-09-15T01:18:47.227Z,18.98
2018-09-15T01:19:46.953Z,18.95
2018-09-15T01:20:47.037Z,18.93
2018-09-15T01:21:47.465Z,18.98
2018-09-15T01:22:47.252Z,18.83
2018-09-15T01:23:47.218Z,18.89
2018-09-15T01:24:47.481Z,18.83
2018-09-15T01:25:47.220Z,18.88
2018-09-15T01:26:47.474Z,18.8
2018-09-15T01:27:47.519Z,18.86
2018-09-15T01:28:46.956Z,18.81
2018-09-15T01:29:47.208Z,18.89
2018-09-15T01:30:47.471Z,18.81
2018-09-15T01:31:47.513Z,18.89
2018-09-15T01:32:47.510Z,18.84
2018-09-15T01:33:46.960Z,18.84
2018-09-15T01:34:47.236Z,18.86
2018-09-15T01:35:47.308Z,18.78
2018-09-15T01:36:47.219Z,18.73
2018-09-15T01:37:47.218Z,18.75
2018-09-15T01:38:47.491Z,18.75
2018-09-15T01:39:47.506Z,18.65
2018-09-15T01:40:47.274Z,18.7
2018-09-15T01:41:47.229Z,18.66
2018-09-15T01:42:46.962Z,18.63
2018-09-15T01:43:47.482Z,18.56
2018-09-15T01:44:47.481Z,18.62
2018-09-15T01:45:47.259Z,18.62
2018-09-15T01:46:47.479Z,18.62
2018-09-15T01:47:47.476Z,18.65
2018-09-15T01:48:47.235Z,18.6
2018-09-15T01:49:47.484Z,18.6
2018-09-15T01:50:47.249Z,18.59
2018-09-15T01:51:47.492Z,18.6
2018-09-15T01:52:47.253Z,18.58
2018-09-15T01:53:47.240Z,18.6
2018-09-15T01:54:47.489Z,18.66
2018-09-15T01:55:47.668Z,18.59
2018-09-15T01:56:47.231Z,18.62
2018-09-15T01:57:47.636Z,18.58
2018-09-15T01:58:47.248Z,18.65
2018-09-15T01:59:46.982Z,18.59
2018-09-15T02:00:47.258Z,18.62
2018-09-15T02:01:47.494Z,18.63
2018-09-15T02:02:47.483Z,18.59
2018-09-15T02:03:46.977Z,18.73
2018-09-15T02:04:47.230Z,18.68
2018-09-15T02:05:47.583Z,18.62
2018-09-15T02:06:47.482Z,18.68
2018-09-15T02:07:47.232Z,18.71
2018-09-15T02:08:47.229Z,18.55
2018-09-15T02:09:47.236Z,18.62
2018-09-15T02:10:47.493Z,18.62
2018-09-15T02:11:47.483Z,18.59
2018-09-15T02:12:47.250Z,18.52
2018-09-15T02:13:47.504Z,18.5
2018-09-15T02:14:47.488Z,18.52
2018-09-15T02:15:47.489Z,18.59
2018-09-15T02:16:47.524Z,18.52
2018-09-15T02:17:47.509Z,18.56
2018-09-15T02:18:47.239Z,18.55
2018-09-15T02:19:47.498Z,18.52
2018-09-15T02:20:47.238Z,18.53
2018-09-15T02:21:47.497Z,18.63
2018-09-15T02:22:47.919Z,18.55
2018-09-15T02:23:47.507Z,18.63
2018-09-15T02:24:47.508Z,18.43
2018-09-15T02:25:47.251Z,18.43
2018-09-15T02:26:47.241Z,18.52
2018-09-15T02:27:47.502Z,18.47
2018-09-15T02:28:47.527Z,18.45
2018-09-15T02:29:47.500Z,18.52
2018-09-15T02:30:47.242Z,18.5
2018-09-15T02:31:47.508Z,18.43
2018-09-15T02:32:47.243Z,18.44
2018-09-15T02:33:47.494Z,18.47
2018-09-15T02:34:47.262Z,18.5
2018-09-15T02:35:47.596Z,18.5
2018-09-15T02:36:47.258Z,18.37
2018-09-15T02:37:47.506Z,18.37
2018-09-15T02:38:47.241Z,18.43
2018-09-15T02:39:46.996Z,18.34
2018-09-15T02:40:47.539Z,18.31
2018-09-15T02:41:47.498Z,18.34
2018-09-15T02:42:47.255Z,18.28
2018-09-15T02:43:47.500Z,18.22
2018-09-15T02:44:47.507Z,18.22
2018-09-15T02:45:47.594Z,18.1
2018-09-15T02:46:47.502Z,18.22
2018-09-15T02:47:46.988Z,18.11
2018-09-15T02:48:47.503Z,18.2
2018-09-15T02:49:47.502Z,18.11
2018-09-15T02:50:47.573Z,18.11
2018-09-15T02:51:46.999Z,18.07
2018-09-15T02:52:47.547Z,18.15
2018-09-15T02:53:47.241Z,18.11
2018-09-15T02:54:47.968Z,18.16
2018-09-15T02:55:47.609Z,18.1
2018-09-15T02:56:47.507Z,18.1
2018-09-15T02:57:47.256Z,18.16
2018-09-15T02:58:47.501Z,18.16
2018-09-15T02:59:47.498Z,18.05
2018-09-15T03:00:47.577Z,18.11
2018-09-15T03:01:47.515Z,18.11
2018-09-15T03:02:47.501Z,18.07
2018-09-15T03:03:47.240Z,18.07
2018-09-15T03:04:47.507Z,18.05
2018-09-15T03:05:47.379Z,18.04
2018-09-15T03:06:47.502Z,17.97
2018-09-15T03:07:47.506Z,17.97
2018-09-15T03:08:47.516Z,17.92
2018-09-15T03:09:47.509Z,17.92
2018-09-15T03:10:47.798Z,17.9
2018-09-15T03:11:47.513Z,18
2018-09-15T03:12:47.501Z,17.87
2018-09-15T03:13:47.256Z,17.94
2018-09-15T03:14:47.511Z,17.98
2018-09-15T03:15:47.520Z,17.92
2018-09-15T03:16:47.006Z,17.89
2018-09-15T03:17:47.979Z,17.86
2018-09-15T03:18:47.526Z,17.9
2018-09-15T03:19:47.006Z,17.85
2018-09-15T03:20:47.566Z,17.89
2018-09-15T03:21:47.524Z,17.82
2018-09-15T03:22:47.513Z,17.79
2018-09-15T03:23:47.520Z,17.79
2018-09-15T03:24:47.260Z,17.89
2018-09-15T03:25:47.506Z,17.79
2018-09-15T03:26:47.255Z,17.76
2018-09-15T03:27:47.520Z,17.86
2018-09-15T03:28:47.260Z,17.76
2018-09-15T03:29:47.266Z,17.8
2018-09-15T03:30:47.533Z,17.86
2018-09-15T03:31:47.536Z,17.9
2018-09-15T03:32:47.257Z,17.79
2018-09-15T03:33:47.254Z,17.85
2018-09-15T03:34:47.273Z,17.83
2018-09-15T03:35:47.589Z,17.78
2018-09-15T03:36:47.528Z,17.92
2018-09-15T03:37:47.268Z,17.87
2018-09-15T03:38:47.263Z,17.87
2018-09-15T03:39:47.254Z,17.85
2018-09-15T03:40:47.248Z,17.82
2018-09-15T03:41:48.055Z,17.76
2018-09-15T03:42:47.250Z,17.74
2018-09-15T03:43:47.254Z,17.79
2018-09-15T03:44:47.256Z,17.79
2018-09-15T03:45:47.269Z,17.83
2018-09-15T03:46:47.515Z,17.76
2018-09-15T03:47:47.276Z,17.79
2018-09-15T03:48:47.002Z,17.76
2018-09-15T03:49:47.514Z,17.86
2018-09-15T03:50:47.257Z,17.72
2018-09-15T03:51:46.999Z,17.78
2018-09-15T03:52:47.526Z,17.83
2018-09-15T03:53:46.995Z,17.79
2018-09-15T03:54:47.525Z,17.79
2018-09-15T03:55:47.325Z,17.83
2018-09-15T03:56:47.260Z,17.72
2018-09-15T03:57:47.517Z,17.79
2018-09-15T03:58:47.256Z,17.7
2018-09-15T03:59:47.276Z,17.74
2018-09-15T04:00:47.381Z,17.72
2018-09-15T04:01:47.261Z,17.68
2018-09-15T04:02:47.262Z,17.67
2018-09-15T04:03:47.519Z,17.63
2018-09-15T04:04:47.251Z,17.64
2018-09-15T04:05:47.612Z,17.64
2018-09-15T04:06:46.991Z,17.63
2018-09-15T04:07:47.515Z,17.63
2018-09-15T04:08:46.996Z,17.65
2018-09-15T04:09:47.526Z,17.68
2018-09-15T04:10:47.538Z,17.6
2018-09-15T04:11:47.260Z,17.64
2018-09-15T04:12:47.522Z,17.68
2018-09-15T04:13:47.262Z,17.68
2018-09-15T04:14:47.514Z,17.63
2018-09-15T04:15:47.339Z,17.63
2018-09-15T04:16:47.265Z,17.68
2018-09-15T04:17:47.259Z,17.59
2018-09-15T04:18:47.258Z,17.63
2018-09-15T04:19:47.252Z,17.6
2018-09-15T04:20:47.039Z,17.68
2018-09-15T04:21:47.499Z,17.54
2018-09-15T04:22:47.248Z,17.57
2018-09-15T04:23:47.246Z,17.6
2018-09-15T04:24:47.495Z,17.51
2018-09-15T04:25:47.291Z,17.54
2018-09-15T04:26:47.248Z,17.57
2018-09-15T04:27:47.273Z,17.56
2018-09-15T04:28:47.253Z,17.63
2018-09-15T04:29:47.261Z,17.64
2018-09-15T04:30:47.586Z,17.7
2018-09-15T04:31:47.251Z,17.56
2018-09-15T04:32:47.254Z,17.6
2018-09-15T04:33:47.269Z,17.59
2018-09-15T04:34:47.516Z,17.49
2018-09-15T04:35:47.545Z,17.6
2018-09-15T04:36:47.264Z,17.6
2018-09-15T04:37:47.011Z,17.6
2018-09-15T04:38:47.251Z,17.54
2018-09-15T04:39:47.517Z,17.56
2018-09-15T04:40:47.306Z,17.56
2018-09-15T04:41:47.761Z,17.59
2018-09-15T04:42:47.258Z,17.45
2018-09-15T04:43:46.998Z,17.49
2018-09-15T04:44:47.247Z,17.51
2018-09-15T04:45:47.530Z,17.49
2018-09-15T04:46:47.504Z,17.41
2018-09-15T04:47:47.533Z,17.42
2018-09-15T04:48:47.528Z,17.36
2018-09-15T04:49:47.529Z,17.45
2018-09-15T04:50:47.334Z,17.36
2018-09-15T04:51:47.257Z,17.38
2018-09-15T04:52:47.900Z,17.45
2018-09-15T04:53:47.549Z,17.49
2018-09-15T04:54:47.002Z,17.49
2018-09-15T04:55:47.284Z,17.52
2018-09-15T04:56:47.516Z,17.39
2018-09-15T04:57:47.018Z,17.41
2018-09-15T04:58:47.865Z,17.33
2018-09-15T04:59:47.495Z,17.33
2018-09-15T05:00:47.568Z,17.38
2018-09-15T05:01:47.506Z,17.42
2018-09-15T05:02:47.239Z,17.33
2018-09-15T05:03:47.246Z,17.31
2018-09-15T05:04:46.996Z,17.24
2018-09-15T05:05:47.317Z,17.22
2018-09-15T05:06:47.779Z,17.16
2018-09-15T05:07:47.241Z,17.22
2018-09-15T05:08:47.522Z,17.2
2018-09-15T05:09:46.996Z,17.14
2018-09-15T05:10:47.518Z,17.19
2018-09-15T05:11:46.996Z,17.06
2018-09-15T05:12:47.743Z,17.06
2018-09-15T05:13:47.251Z,17.06
2018-09-15T05:14:47.246Z,17.06
2018-09-15T05:15:47.071Z,16.99
2018-09-15T05:16:47.514Z,17.02
2018-09-15T05:17:47.499Z,16.96
2018-09-15T05:18:47.501Z,16.94
2018-09-15T05:19:47.516Z,16.94
2018-09-15T05:20:47.535Z,16.93
2018-09-15T05:21:47.499Z,17.01
2018-09-15T05:22:47.540Z,16.9
2018-09-15T05:23:47.239Z,16.91
2018-09-15T05:24:47.246Z,16.87
2018-09-15T05:25:47.566Z,16.83
2018-09-15T05:26:47.494Z,16.87
2018-09-15T05:27:47.232Z,16.83
2018-09-15T05:28:46.988Z,16.86
2018-09-15T05:29:47.234Z,16.81
2018-09-15T05:30:47.284Z,16.83
2018-09-15T05:31:47.395Z,16.89
2018-09-15T05:32:47.240Z,16.83
2018-09-15T05:33:47.488Z,16.89
2018-09-15T05:34:47.482Z,16.9
2018-09-15T05:35:47.293Z,16.83
2018-09-15T05:36:47.483Z,16.87
2018-09-15T05:37:47.480Z,16.89
2018-09-15T05:38:47.222Z,16.84
2018-09-15T05:39:47.584Z,16.97
2018-09-15T05:40:47.510Z,17.04
2018-09-15T05:41:47.248Z,17.04
2018-09-15T05:42:47.224Z,17.06
2018-09-15T05:43:47.219Z,17.02
2018-09-15T05:44:46.977Z,17.09
2018-09-15T05:45:47.060Z,17.11
2018-09-15T05:46:47.476Z,17.14
2018-09-15T05:47:47.220Z,17.11
2018-09-15T05:48:47.488Z,17.11
2018-09-15T05:49:47.765Z,17.09
2018-09-15T05:50:47.243Z,17.19
2018-09-15T05:51:46.965Z,17.15
2018-09-15T05:52:47.224Z,17.2
2018-09-15T05:53:47.225Z,17.2
2018-09-15T05:54:47.221Z,17.31
2018-09-15T05:55:47.489Z,17.36
2018-09-15T05:56:47.488Z,17.39
2018-09-15T05:57:46.971Z,17.31
2018-09-15T05:58:47.225Z,17.42
2018-09-15T05:59:47.228Z,17.45
2018-09-15T06:00:47.276Z,17.46
2018-09-15T06:01:47.489Z,17.54
2018-09-15T06:02:47.481Z,17.54
2018-09-15T06:03:47.227Z,17.54
2018-09-15T06:04:47.486Z,17.6
2018-09-15T06:05:47.570Z,17.65
2018-09-15T06:06:47.783Z,17.68
2018-09-15T06:07:47.802Z,17.7
2018-09-15T06:08:47.484Z,17.7
2018-09-15T06:09:47.212Z,17.74
2018-09-15T06:10:47.533Z,17.79
2018-09-15T06:11:47.239Z,17.79
2018-09-15T06:12:47.230Z,17.94
2018-09-15T06:13:47.421Z,18
2018-09-15T06:14:47.473Z,18.07
2018-09-15T06:15:47.621Z,18.18
2018-09-15T06:16:47.209Z,18.2
2018-09-15T06:17:47.474Z,18.19
2018-09-15T06:18:47.515Z,18.2
2018-09-15T06:19:47.474Z,18.13
2018-09-15T06:20:47.026Z,18.15
2018-09-15T06:21:47.473Z,18.1
2018-09-15T06:22:47.221Z,17.92
2018-09-15T06:23:47.506Z,17.92
2018-09-15T06:24:46.985Z,17.8
2018-09-15T06:25:47.271Z,17.78
2018-09-15T06:26:47.492Z,17.72
2018-09-15T06:27:46.964Z,17.76
2018-09-15T06:28:47.472Z,17.74
2018-09-15T06:29:46.972Z,17.74
2018-09-15T06:30:47.083Z,17.72
2018-09-15T06:31:47.222Z,17.74
2018-09-15T06:32:47.254Z,17.86
2018-09-15T06:33:47.478Z,17.76
2018-09-15T06:34:47.487Z,17.86
2018-09-15T06:35:47.240Z,17.92
2018-09-15T06:36:46.973Z,17.9
2018-09-15T06:37:47.225Z,18
2018-09-15T06:38:47.490Z,18.04
2018-09-15T06:39:46.978Z,18.08
2018-09-15T06:40:47.553Z,18.08
2018-09-15T06:41:47.488Z,18.49
2018-09-15T06:42:47.232Z,18.92
2018-09-15T06:43:46.982Z,19.37
2018-09-15T06:44:47.221Z,19.7
2018-09-15T06:45:47.972Z,20.14
2018-09-15T06:46:47.485Z,20.43
2018-09-15T06:47:47.225Z,20.9
2018-09-15T06:48:47.232Z,21.21
2018-09-15T06:49:47.231Z,21.46
2018-09-15T06:50:47.497Z,21.67
2018-09-15T06:51:47.495Z,21.58
2018-09-15T06:52:47.234Z,21.43
2018-09-15T06:53:47.728Z,21.22
2018-09-15T06:54:47.506Z,20.99
2018-09-15T06:55:47.025Z,20.85
2018-09-15T06:56:47.255Z,20.74
2018-09-15T06:57:47.395Z,20.52
2018-09-15T06:58:47.521Z,20.43
2018-09-15T06:59:47.256Z,20.21
2018-09-15T07:00:47.619Z,20.03
2018-09-15T07:01:47.513Z,19.94
2018-09-15T07:02:47.264Z,20
2018-09-15T07:03:47.015Z,19.99
2018-09-15T07:04:47.260Z,20.21
2018-09-15T07:05:47.362Z,20.37
2018-09-15T07:06:47.286Z,20.66
2018-09-15T07:07:47.016Z,21.17
2018-09-15T07:08:47.528Z,21.58
2018-09-15T07:09:47.020Z,22.04
2018-09-15T07:10:47.294Z,22.6
2018-09-15T07:11:47.286Z,22.83
2018-09-15T07:12:47.533Z,23.15
2018-09-15T07:13:47.033Z,23.43
2018-09-15T07:14:47.297Z,23.74
2018-09-15T07:15:47.403Z,23.93
2018-09-15T07:16:47.309Z,24.18
2018-09-15T07:17:47.300Z,24.45
2018-09-15T07:18:47.328Z,24.81
2018-09-15T07:19:47.587Z,25.25
2018-09-15T07:20:47.396Z,25.29
2018-09-15T07:21:47.658Z,25.59
2018-09-15T07:22:47.068Z,25.9
2018-09-15T07:23:47.074Z,26.16
2018-09-15T07:24:47.615Z,26.38
2018-09-15T07:25:47.458Z,26.23
2018-09-15T07:26:47.363Z,26.18
2018-09-15T07:27:47.358Z,26.22
2018-09-15T07:28:47.620Z,26.47
2018-09-15T07:29:47.367Z,26.52
2018-09-15T07:30:47.719Z,26.58
2018-09-15T07:31:47.881Z,26.65
2018-09-15T07:32:47.638Z,26.84
2018-09-15T07:33:47.125Z,26.9
2018-09-15T07:34:47.479Z,26.43
2018-09-15T07:35:47.682Z,26.16
2018-09-15T07:36:47.663Z,25.98
2018-09-15T07:37:48.091Z,25.85
2018-09-15T07:38:47.412Z,25.77
2018-09-15T07:39:47.418Z,26.16
2018-09-15T07:40:47.479Z,26.71
2018-09-15T07:41:47.446Z,27.08
2018-09-15T07:42:47.702Z,27.29
2018-09-15T07:43:47.196Z,27.26
2018-09-15T07:44:47.560Z,26.99
2018-09-15T07:45:47.273Z,26.65
2018-09-15T07:46:47.206Z,26.34
2018-09-15T07:47:47.483Z,25.9
2018-09-15T07:48:47.742Z,25.59
2018-09-15T07:49:47.245Z,25.55
2018-09-15T07:50:47.245Z,25.47
2018-09-15T07:51:48.105Z,25.5
2018-09-15T07:52:47.769Z,25.69
2018-09-15T07:53:47.507Z,25.63
2018-09-15T07:54:47.246Z,25.35
2018-09-15T07:55:47.597Z,25.1
2018-09-15T07:56:47.527Z,25.41
2018-09-15T07:57:48.476Z,25.77
2018-09-15T07:58:47.787Z,26.15
2018-09-15T07:59:47.553Z,26.52
2018-09-15T08:00:47.585Z,27.03
2018-09-15T08:01:47.539Z,27.11
2018-09-15T08:02:47.549Z,27.22
2018-09-15T08:03:47.563Z,27.11
2018-09-15T08:04:47.803Z,27.25
2018-09-15T08:05:47.650Z,27.4
2018-09-15T08:06:47.854Z,27.78
2018-09-15T08:07:47.874Z,28.19
2018-09-15T08:08:47.844Z,28.56
2018-09-15T08:09:47.839Z,28.74
2018-09-15T08:10:47.927Z,28.96
2018-09-15T08:11:47.853Z,28.96
2018-09-15T08:12:47.866Z,28.98
2018-09-15T08:13:47.896Z,28.72
2018-09-15T08:14:47.868Z,28.15
2018-09-15T08:15:47.908Z,27.39
2018-09-15T08:16:47.893Z,27.03
2018-09-15T08:17:47.900Z,26.84
2018-09-15T08:18:47.919Z,26.52
2018-09-15T08:19:47.659Z,26.36
2018-09-15T08:20:47.810Z,26.07
2018-09-15T08:21:47.915Z,25.6
2018-09-15T08:22:47.929Z,24.96
2018-09-15T08:23:47.690Z,24.68
2018-09-15T08:24:47.941Z,24.33
2018-09-15T08:25:47.962Z,24.06
2018-09-15T08:26:47.442Z,23.71
2018-09-15T08:27:47.723Z,23.48
2018-09-15T08:28:47.966Z,23.15
2018-09-15T08:29:47.970Z,22.68
2018-09-15T08:30:47.785Z,22.54
2018-09-15T08:31:47.724Z,22.3
2018-09-15T08:32:47.730Z,22.29
2018-09-15T08:33:47.735Z,22.28
2018-09-15T08:34:47.992Z,22.32
2018-09-15T08:35:47.764Z,22.33
2018-09-15T08:36:47.761Z,22.32
2018-09-15T08:37:48.091Z,22.33
2018-09-15T08:38:48.813Z,22.29
2018-09-15T08:39:48.024Z,22.28
2018-09-15T08:40:47.809Z,22.26
2018-09-15T08:41:47.537Z,22.32
2018-09-15T08:42:47.770Z,22.32
2018-09-15T08:43:47.780Z,22.28
2018-09-15T08:44:47.776Z,22
2018-09-15T08:45:48.085Z,21.99
2018-09-15T08:46:48.034Z,21.85
2018-09-15T08:47:47.792Z,21.67
2018-09-15T08:48:48.048Z,21.76
2018-09-15T08:49:47.789Z,21.58
2018-09-15T08:50:47.843Z,21.5
2018-09-15T08:51:48.070Z,21.27
2018-09-15T08:52:48.061Z,21.14
2018-09-15T08:53:47.820Z,21.02
2018-09-15T08:54:48.056Z,21.02
2018-09-15T08:55:47.831Z,21.02
2018-09-15T08:56:47.888Z,21.03
2018-09-15T08:57:47.817Z,21.17
2018-09-15T08:58:47.824Z,21.29
2018-09-15T08:59:48.098Z,21.45
2018-09-15T09:00:47.847Z,21.37
2018-09-15T09:01:48.110Z,21.35
2018-09-15T09:02:48.089Z,21.35
2018-09-15T09:03:48.076Z,21.32
2018-09-15T09:04:47.830Z,21.29
2018-09-15T09:05:47.911Z,21.12
2018-09-15T09:06:47.851Z,21.02
2018-09-15T09:07:47.848Z,20.88
2018-09-15T09:08:47.843Z,20.88
2018-09-15T09:09:48.116Z,20.95
2018-09-15T09:10:48.124Z,21.14
2018-09-15T09:11:47.863Z,21.32
2018-09-15T09:12:48.108Z,21.46
2018-09-15T09:13:48.136Z,21.54
2018-09-15T09:14:48.133Z,21.54
2018-09-15T09:15:48.165Z,21.55
2018-09-15T09:16:47.614Z,21.58
2018-09-15T09:17:47.872Z,21.62
2018-09-15T09:18:47.873Z,21.66
2018-09-15T09:19:47.944Z,21.45
2018-09-15T09:20:47.954Z,21.25
2018-09-15T09:21:48.137Z,21.18
2018-09-15T09:22:47.883Z,21
2018-09-15T09:23:48.157Z,21.03
2018-09-15T09:24:48.157Z,20.97
2018-09-15T09:25:48.272Z,21.05
2018-09-15T09:26:48.625Z,21.03
2018-09-15T09:27:47.636Z,21.07
2018-09-15T09:28:48.153Z,21.02
2018-09-15T09:29:47.897Z,20.95
2018-09-15T09:30:48.169Z,21.02
2018-09-15T09:31:48.173Z,20.99
2018-09-15T09:32:47.909Z,20.97
2018-09-15T09:33:47.911Z,20.92
2018-09-15T09:34:48.173Z,20.84
2018-09-15T09:35:48.169Z,20.88
2018-09-15T09:36:47.913Z,20.9
2018-09-15T09:37:48.169Z,20.9
2018-09-15T09:38:47.659Z,20.99
2018-09-15T09:39:47.919Z,20.95
2018-09-15T09:40:48.198Z,21.12
2018-09-15T09:41:47.953Z,21.3
2018-09-15T09:42:48.179Z,21.21
2018-09-15T09:43:48.202Z,21.35
2018-09-15T09:44:47.935Z,21.39
2018-09-15T09:45:47.958Z,21.35
2018-09-15T09:46:48.523Z,21.37
2018-09-15T09:47:47.697Z,21.37
2018-09-15T09:48:47.936Z,21.29
2018-09-15T09:49:47.957Z,21.35
2018-09-15T09:50:47.964Z,21.27
2018-09-15T09:51:47.947Z,21.36
2018-09-15T09:52:48.235Z,21.4
2018-09-15T09:53:47.958Z,21.48
2018-09-15T09:54:47.959Z,21.66
2018-09-15T09:55:47.967Z,21.69
2018-09-15T09:56:48.220Z,21.91
2018-09-15T09:57:48.249Z,22.06
2018-09-15T09:58:47.968Z,22.22
2018-09-15T09:59:48.221Z,22.28
2018-09-15T10:00:48.231Z,22.14
2018-09-15T10:01:47.967Z,22.14
2018-09-15T10:02:48.227Z,22.22
2018-09-15T10:03:48.239Z,21.93
2018-09-15T10:04:48.234Z,21.88
2018-09-15T10:05:47.782Z,21.85
2018-09-15T10:06:48.240Z,21.75
2018-09-15T10:07:48.328Z,21.66
2018-09-15T10:08:47.986Z,21.62
2018-09-15T10:09:48.255Z,21.89
2018-09-15T10:10:48.324Z,21.92
2018-09-15T10:11:48.262Z,21.91
2018-09-15T10:12:48.272Z,21.83
2018-09-15T10:13:49.066Z,21.95
2018-09-15T10:14:48.319Z,21.89
2018-09-15T10:15:48.450Z,21.69
2018-09-15T10:16:48.255Z,21.76
2018-09-15T10:17:48.275Z,21.72
2018-09-15T10:18:48.288Z,21.8
2018-09-15T10:19:48.295Z,21.72
2018-09-15T10:20:48.121Z,21.76
2018-09-15T10:21:48.085Z,21.92
2018-09-15T10:22:48.308Z,21.89
2018-09-15T10:23:48.036Z,21.75
2018-09-15T10:24:47.775Z,21.73
2018-09-15T10:25:47.848Z,21.62
2018-09-15T10:26:48.312Z,21.58
2018-09-15T10:27:48.300Z,21.54
2018-09-15T10:28:47.785Z,21.51
2018-09-15T10:29:47.789Z,21.5
2018-09-15T10:30:48.121Z,21.37
2018-09-15T10:31:47.808Z,21.35
2018-09-15T10:32:48.060Z,21.25
2018-09-15T10:33:48.318Z,21.21
2018-09-15T10:34:48.317Z,21.2
2018-09-15T10:35:47.895Z,21.2
2018-09-15T10:36:48.318Z,21.22
2018-09-15T10:37:48.074Z,21.43
2018-09-15T10:38:47.816Z,21.46
2018-09-15T10:39:48.365Z,21.58
2018-09-15T10:40:48.135Z,21.69
2018-09-15T10:41:48.094Z,21.76
2018-09-15T10:42:48.342Z,21.76
2018-09-15T10:43:48.377Z,21.92
2018-09-15T10:44:48.353Z,22.06
2018-09-15T10:45:48.214Z,22.14
2018-09-15T10:46:48.348Z,22.29
2018-09-15T10:47:48.096Z,22.35
2018-09-15T10:48:48.112Z,22.55
2018-09-15T10:49:48.103Z,22.7
2018-09-15T10:50:48.176Z,22.59
2018-09-15T10:51:48.380Z,22.63
2018-09-15T10:52:48.106Z,22.62
2018-09-15T10:53:48.380Z,22.53
2018-09-15T10:54:48.123Z,22.53
2018-09-15T10:55:48.499Z,22.55
2018-09-15T10:56:48.120Z,22.26
2018-09-15T10:57:48.125Z,22.25
2018-09-15T10:58:48.368Z,22.17
2018-09-15T10:59:48.387Z,21.98
2018-09-15T11:00:48.740Z,22
2018-09-15T11:01:48.376Z,21.99
2018-09-15T11:02:48.394Z,22.02
2018-09-15T11:03:48.399Z,22.06
2018-09-15T11:04:48.141Z,22.06
2018-09-15T11:05:48.490Z,21.96
2018-09-15T11:06:48.147Z,22.06
2018-09-15T11:07:47.890Z,22
2018-09-15T11:08:48.156Z,21.85
2018-09-15T11:09:48.404Z,21.96
2018-09-15T11:10:48.452Z,21.91
2018-09-15T11:11:48.409Z,21.98
2018-09-15T11:12:48.413Z,22.08
2018-09-15T11:13:48.734Z,22.23
2018-09-15T11:14:48.165Z,22.2
2018-09-15T11:15:48.273Z,22.08
2018-09-15T11:16:48.423Z,22
2018-09-15T11:17:48.432Z,21.99
2018-09-15T11:18:48.432Z,21.95
2018-09-15T11:19:48.427Z,21.96
2018-09-15T11:20:48.173Z,21.88
2018-09-15T11:21:48.174Z,21.79
2018-09-15T11:22:48.739Z,21.79
2018-09-15T11:23:48.430Z,21.73
2018-09-15T11:24:48.189Z,21.66
2018-09-15T11:25:48.441Z,21.55
2018-09-15T11:26:48.443Z,21.54
2018-09-15T11:27:47.942Z,21.5
2018-09-15T11:28:48.757Z,21.5
2018-09-15T11:29:48.218Z,21.51
2018-09-15T11:30:48.285Z,21.45
2018-09-15T11:31:48.470Z,21.48
2018-09-15T11:32:48.238Z,21.43
2018-09-15T11:33:48.473Z,21.5
2018-09-15T11:34:48.220Z,21.62
2018-09-15T11:35:48.478Z,21.67
2018-09-15T11:36:48.478Z,21.83
2018-09-15T11:37:48.206Z,22.04
2018-09-15T11:38:48.236Z,22.13
2018-09-15T11:39:48.480Z,22.26
2018-09-15T11:40:48.474Z,22.22
2018-09-15T11:41:48.227Z,22.14
2018-09-15T11:42:48.482Z,22.33
2018-09-15T11:43:48.682Z,22.55
2018-09-15T11:44:48.226Z,22.68
2018-09-15T11:45:48.517Z,22.9
2018-09-15T11:46:48.565Z,23.17
2018-09-15T11:47:48.651Z,23.32
2018-09-15T11:48:48.496Z,23.46
2018-09-15T11:49:47.990Z,23.5
2018-09-15T11:50:48.590Z,23.62
2018-09-15T11:51:48.265Z,23.61
2018-09-15T11:52:48.506Z,23.63
2018-09-15T11:53:48.735Z,23.61
2018-09-15T11:54:48.260Z,23.55
2018-09-15T11:55:48.264Z,23.47
2018-09-15T11:56:48.269Z,23.28
2018-09-15T11:57:48.536Z,23.1
2018-09-15T11:58:48.290Z,22.72
2018-09-15T11:59:48.530Z,22.66
2018-09-15T12:00:48.577Z,22.3
2018-09-15T12:01:48.279Z,22.17
2018-09-15T12:02:48.291Z,22.1
2018-09-15T12:03:48.555Z,22.07
2018-09-15T12:04:48.557Z,22.04
2018-09-15T12:05:48.687Z,21.89
2018-09-15T12:06:48.306Z,21.8
2018-09-15T12:07:48.832Z,21.79
2018-09-15T12:08:48.048Z,21.89
2018-09-15T12:09:48.311Z,21.95
2018-09-15T12:10:48.311Z,21.96
2018-09-15T12:11:48.568Z,22.06
2018-09-15T12:12:48.570Z,22.08
2018-09-15T12:13:48.568Z,22.18
2018-09-15T12:14:48.314Z,22.14
2018-09-15T12:15:48.329Z,22.33
2018-09-15T12:16:48.576Z,22.35
2018-09-15T12:17:48.322Z,22.35
2018-09-15T12:18:48.597Z,22.44
2018-09-15T12:19:48.590Z,22.59
2018-09-15T12:20:48.346Z,22.62
2018-09-15T12:21:48.167Z,22.62
2018-09-15T12:22:48.592Z,22.6
2018-09-15T12:23:48.355Z,22.51
2018-09-15T12:24:48.609Z,22.47
2018-09-15T12:25:48.639Z,22.32
2018-09-15T12:26:48.085Z,22.3
2018-09-15T12:27:48.736Z,22.22
2018-09-15T12:28:48.606Z,22.04
2018-09-15T12:29:48.432Z,22.08
2018-09-15T12:30:48.406Z,22.06
2018-09-15T12:31:48.357Z,22.2
2018-09-15T12:32:48.612Z,22.22
2018-09-15T12:33:48.628Z,22.2
2018-09-15T12:34:48.105Z,22.26
2018-09-15T12:35:48.158Z,22.29
2018-09-15T12:36:48.633Z,22.35
2018-09-15T12:37:48.625Z,22.29
2018-09-15T12:38:48.630Z,22.28
2018-09-15T12:39:48.640Z,22.22
2018-09-15T12:40:48.692Z,22.36
2018-09-15T12:41:48.381Z,22.5
2018-09-15T12:42:48.689Z,22.54
2018-09-15T12:43:48.667Z,22.57
2018-09-15T12:44:48.720Z,22.43
2018-09-15T12:45:48.661Z,22.33
2018-09-15T12:46:48.415Z,22.38
2018-09-15T12:47:48.400Z,22.26
2018-09-15T12:48:48.395Z,22.18
2018-09-15T12:49:48.426Z,22.08
2018-09-15T12:50:48.730Z,22.22
2018-09-15T12:51:48.553Z,22.26
2018-09-15T12:52:48.431Z,22.36
2018-09-15T12:53:48.678Z,22.54
2018-09-15T12:54:48.670Z,22.51
2018-09-15T12:55:48.521Z,22.63
2018-09-15T12:56:48.421Z,22.72